Warning: Javascript must be enabled to use all the features on this page!


Page Loading - Please Wait...

Click to hideNews Bulletins
Click to hide state-specific text

 


Beginning May 12, 2017, the USGS Texas Water Science Center will be transitioning to new time series data management software. While you are not likely to notice this transition, some sites may have problems or delays during the update. We are actively monitoring these conditions and resolving them as quickly as possible.


 

Explore Real-time Water Data Using New Products from USGS TXWSC

View over 750 USGS real-time stream, lake, reservoir, precipitation, and groundwater stations in context with current weather and hazard conditions on both desktop and mobile devices.

Click to go to the Texas Water Dashboard Click to go to the WATER On-the-go app

Follow @USGS_TexasFlood and @USGS_TexasRain on Twitter to get current water level and precipitation data during flooding or severe rainfall events.

USGS 08195000 Frio Rv at Concan, TX

PROVISIONAL DATA SUBJECT TO REVISION

Click to hidestation-specific text
Funding for this site is provided by the cooperators / programs below:
Click to go to the Edwards Aquifer Authority web page

Edwards Aquifer Authority

Click to go to the Cooperative Matching Funds web page

Cooperative Matching Funds

 

Rainfall Disclaimer


retransmission, forecasts and summary of this location by the National Weather Service
Retransmission, forecasts and summary by the National Weather Service

National Weather Service provided floatability levels for recreational users at several locations throughout Texas.

This station managed by the San Antonio Field Unit.

Available Parameters Available Period
All 6 Available Parameters for this site
  
00010 Temperature, water 2013-07-25  2017-05-23
00045 Precipitation 2017-01-23  2017-05-23
00060 Discharge 2007-10-01  2017-05-23
00065 Gage height 2007-10-01  2017-05-23
00095 Specific cond at 25C 2013-07-02  2017-05-23
99133 NO3+NO2,water,insitu 2015-09-24  2017-05-23

Graph
Graph w/ stats
Graph w/o stats
Graph w/ (up to 3) parms
Table
Tab-separated
Days  (2)
 

  -- or --
Begin date
 

End date
 

Summary of all available data for this site
Instantaneous-data availability statement






Date / Time




Gage
height,
feet,




Dis-
charge,
ft3/s,



Precip-
itation
total,
inches,
Specif-
ic
conduc-
tance,
wat unf
uS/cm @
25 degC,



Temper-
ature,
water,
deg C,

Nitrate
+
nitrite
water,
in situ
mg/L as,
05/21/2017 00:00 CDT3.77P  94P  0.00P  459P  24.1P  0.359P  
05/21/2017 00:15 CDT3.77P  94P  0.00P  460P  24.1P     
05/21/2017 00:30 CDT3.76P  92P  0.00P  460P  24.0P     
05/21/2017 00:45 CDT3.76P  92P  0.00P  460P  24.0P     
05/21/2017 01:00 CDT3.77P  94P  0.00P  457P  24.0P  0.360P  
05/21/2017 01:15 CDT3.77P  94P  0.00P  456P  24.0P     
05/21/2017 01:30 CDT3.76P  92P  0.00P  455P  24.0P     
05/21/2017 01:45 CDT3.76P  92P  0.00P  455P  23.9P     
05/21/2017 02:00 CDT3.76P  92P  0.00P  455P  23.9P  0.362P  
05/21/2017 02:15 CDT3.77P  94P  0.00P  455P  23.9P     
05/21/2017 02:30 CDT3.77P  94P  0.00P  455P  23.8P     
05/21/2017 02:45 CDT3.77P  94P  0.00P  455P  23.8P     
05/21/2017 03:00 CDT3.77P  94P  0.00P  456P  23.8P  0.365P  
05/21/2017 03:15 CDT3.77P  94P  0.00P  456P  23.8P     
05/21/2017 03:30 CDT3.76P  92P  0.00P  456P  23.7P     
05/21/2017 03:45 CDT3.76P  92P  0.00P  456P  23.7P     
05/21/2017 04:00 CDT3.76P  92P  0.00P  456P  23.7P  0.366P  
05/21/2017 04:15 CDT3.76P  92P  0.00P  456P  23.6P     
05/21/2017 04:30 CDT3.76P  92P  0.00P  456P  23.6P     
05/21/2017 04:45 CDT3.76P  92P  0.00P  456P  23.6P     
05/21/2017 05:00 CDT3.76P  92P  0.00P  457P  23.6P  0.368P  
05/21/2017 05:15 CDT3.76P  92P  0.00P  457P  23.6P     
05/21/2017 05:30 CDT3.76P  92P  0.00P  457P  23.5P     
05/21/2017 05:45 CDT3.76P  92P  0.00P  457P  23.5P     
05/21/2017 06:00 CDT3.76P  92P  0.00P  457P  23.5P  0.369P  
05/21/2017 06:15 CDT3.76P  92P  0.00P  458P  23.4P     
05/21/2017 06:30 CDT3.76P  92P  0.00P  458P  23.4P     
05/21/2017 06:45 CDT3.75P  89P  0.00P  458P  23.4P     
05/21/2017 07:00 CDT3.76P  92P  0.00P  458P  23.4P  0.369P  
05/21/2017 07:15 CDT3.76P  92P  0.00P  459P  23.4P     
05/21/2017 07:30 CDT3.75P  89P  0.00P  459P  23.4P     
05/21/2017 07:45 CDT3.76P  92P  0.00P  459P  23.3P     
05/21/2017 08:00 CDT3.75P  89P  0.00P  459P  23.3P  0.370P  
05/21/2017 08:15 CDT3.76P  92P  0.00P  459P  23.3P     
05/21/2017 08:30 CDT3.76P  92P  0.00P  459P  23.3P     
05/21/2017 08:45 CDT3.76P  92P  0.00P  459P  23.3P     
05/21/2017 09:00 CDT3.75P  89P  0.00P  459P  23.3P  0.369P  
05/21/2017 09:15 CDT3.76P  92P  0.00P  460P  23.3P     
05/21/2017 09:30 CDT3.75P  89P  0.00P  460P  23.3P     
05/21/2017 09:45 CDT3.76P  92P  0.00P  460P  23.3P     
05/21/2017 10:00 CDT3.75P  89P  0.00P  460P  23.3P  0.363P  
05/21/2017 10:15 CDT3.75P  89P  0.00P  460P  23.3P     
05/21/2017 10:30 CDT3.74P  87P  0.00P  460P  23.3P     
05/21/2017 10:45 CDT3.75P  89P  0.00P  460P  23.3P     
05/21/2017 11:00 CDT3.75P  89P  0.00P  460P  23.4P  0.362P  
05/21/2017 11:15 CDT3.74P  87P  0.00P  460P  23.4P     
05/21/2017 11:30 CDT3.75P  89P  0.00P  460P  23.4P     
05/21/2017 11:45 CDT3.74P  87P  0.00P  460P  23.5P     
05/21/2017 12:00 CDT3.75P  89P  0.00P  460P  23.5P  0.357P  
05/21/2017 12:15 CDT3.75P  89P  0.00P  460P  23.5P     
05/21/2017 12:30 CDT3.75P  89P  0.00P  460P  23.6P     
05/21/2017 12:45 CDT3.75P  89P  0.00P  461P  23.6P     
05/21/2017 13:00 CDT3.74P  87P  0.00P  461P  23.6P  0.357P  
05/21/2017 13:15 CDT3.75P  89P  0.00P  461P  23.6P     
05/21/2017 13:30 CDT3.75P  89P  0.00P  461P  23.7P     
05/21/2017 13:45 CDT3.75P  89P  0.01P  461P  23.7P     
05/21/2017 14:00 CDT3.75P  89P  0.00P  461P  23.7P  0.359P  
05/21/2017 14:15 CDT3.75P  89P  0.01P  461P  23.7P     
05/21/2017 14:30 CDT3.75P  89P  0.01P  461P  23.7P     
05/21/2017 14:45 CDT3.75P  89P  0.01P  461P  23.7P     
05/21/2017 15:00 CDT3.75P  89P  0.00P  460P  23.7P  0.359P  
05/21/2017 15:15 CDT3.75P  89P  0.00P  460P  23.6P     
05/21/2017 15:30 CDT3.76P  92P  0.00P  460P  23.6P     
05/21/2017 15:45 CDT3.75P  89P  0.01P  460P  23.6P     
05/21/2017 16:00 CDT3.75P  89P  0.00P  460P  23.6P  0.358P  
05/21/2017 16:15 CDT3.75P  89P  0.00P  460P  23.6P     
05/21/2017 16:30 CDT3.75P  89P  0.01P  460P  23.6P     
05/21/2017 16:45 CDT3.75P  89P  0.00P  460P  23.5P     
05/21/2017 17:00 CDT3.76P  92P  0.02P  459P  23.5P  0.354P  
05/21/2017 17:15 CDT3.75P  89P  0.03P  458P  23.5P     
05/21/2017 17:30 CDT3.74P  87P  0.02P  457P  23.4P     
05/21/2017 17:45 CDT3.76P  92P  0.02P  456P  23.4P     
05/21/2017 18:00 CDT3.76P  92P  0.03P  454P  23.4P  0.352P  
05/21/2017 18:15 CDT3.76P  92P  0.03P  453P  23.3P     
05/21/2017 18:30 CDT3.74P  87P  0.03P  452P  23.3P     
05/21/2017 18:45 CDT3.77P  94P  0.00P  451P  23.2P     
05/21/2017 19:00 CDT3.76P  92P  0.01P  451P  23.2P  0.353P  
05/21/2017 19:15 CDT3.76P  92P  0.01P  450P  23.2P     
05/21/2017 19:30 CDT3.76P  92P  0.00P  450P  23.1P     
05/21/2017 19:45 CDT3.77P  94P  0.01P  450P  23.1P     
05/21/2017 20:00 CDT3.77P  94P  0.01P  450P  23.0P  0.354P  
05/21/2017 20:15 CDT3.77P  94P  0.03P  450P  23.0P     
05/21/2017 20:30 CDT3.77P  94P  0.01P  450P  22.9P     
05/21/2017 20:45 CDT3.77P  94P  0.00P  450P  22.9P     
05/21/2017 21:00 CDT3.77P  94P  0.00P  450P  22.9P  0.357P  
05/21/2017 21:15 CDT3.77P  94P  0.00P  450P  22.8P     
05/21/2017 21:30 CDT3.77P  94P  0.00P  451P  22.8P     
05/21/2017 21:45 CDT3.78P  97P  0.00P  451P  22.7P     
05/21/2017 22:00 CDT3.78P  97P  0.00P  451P  22.6P  0.360P  
05/21/2017 22:15 CDT3.78P  97P  0.00P  451P  22.6P     
05/21/2017 22:30 CDT3.77P  94P  0.00P  452P  22.6P     
05/21/2017 22:45 CDT3.77P  94P  0.01P  452P  22.5P     
05/21/2017 23:00 CDT3.78P  97P  0.06P  452P  22.5P  0.362P  
05/21/2017 23:15 CDT3.79P  100P  0.07P  453P  22.4P     
05/21/2017 23:30 CDT3.81P  105P  0.01P  453P  22.4P     
05/21/2017 23:45 CDT3.81P  105P  0.00P  453P  22.3P     
05/22/2017 00:00 CDT3.80P  102P  0.00P  453P  22.2P  0.368P  
05/22/2017 00:15 CDT3.80P  102P  0.00P  453P  22.2P     
05/22/2017 00:30 CDT3.80P  102P  0.00P  454P  22.2P     
05/22/2017 00:45 CDT3.80P  102P  0.00P  454P  22.1P     
05/22/2017 01:00 CDT3.80P  102P  0.00P  455P  22.1P  0.371P  
05/22/2017 01:15 CDT3.80P  102P  0.00P  456P  22.0P     
05/22/2017 01:30 CDT3.81P  105P  0.00P  456P  22.0P     
05/22/2017 01:45 CDT3.81P  105P  0.00P  457P  22.0P     
05/22/2017 02:00 CDT3.80P  102P  0.00P  457P  21.9P  0.372P  
05/22/2017 02:15 CDT3.81P  105P  0.00P  459P  21.9P     
05/22/2017 02:30 CDT3.80P  102P  0.00P  459P  21.9P     
05/22/2017 02:45 CDT3.81P  105P  0.00P  459P  21.9P     
05/22/2017 03:00 CDT3.80P  102P  0.00P  459P  21.9P  0.372P  
05/22/2017 03:15 CDT3.80P  102P  0.00P  460P  21.9P     
05/22/2017 03:30 CDT3.80P  102P  0.00P  460P  21.8P     
05/22/2017 03:45 CDT3.79P  100P  0.00P  460P  21.8P     
05/22/2017 04:00 CDT3.79P  100P  0.00P  460P  21.8P  0.377P  
05/22/2017 04:15 CDT3.79P  100P  0.00P  461P  21.8P     
05/22/2017 04:30 CDT3.79P  100P  0.00P  461P  21.8P     
05/22/2017 04:45 CDT3.79P  100P  0.00P  461P  21.8P     
05/22/2017 05:00 CDT3.78P  97P  0.00P  461P  21.8P  0.381P  
05/22/2017 05:15 CDT3.78P  97P  0.00P  461P  21.8P     
05/22/2017 05:30 CDT3.78P  97P  0.00P  462P  21.8P     
05/22/2017 05:45 CDT3.78P  97P  0.00P  462P  21.7P     
05/22/2017 06:00 CDT3.78P  97P  0.00P  462P  21.7P  0.385P  
05/22/2017 06:15 CDT3.78P  97P  0.00P  462P  21.7P     
05/22/2017 06:30 CDT3.78P  97P  0.00P  462P  21.7P     
05/22/2017 06:45 CDT3.78P  97P  0.00P  462P  21.7P     
05/22/2017 07:00 CDT3.78P  97P  0.01P  462P  21.7P  0.389P  
05/22/2017 07:15 CDT3.78P  97P  0.00P  462P  21.7P     
05/22/2017 07:30 CDT3.78P  97P  0.00P  462P  21.7P     
05/22/2017 07:45 CDT3.78P  97P  0.00P  462P  21.6P     
05/22/2017 08:00 CDT3.77P  94P  0.00P  462P  21.6P  0.391P  
05/22/2017 08:15 CDT3.77P  94P  0.00P  462P  21.6P     
05/22/2017 08:30 CDT3.78P  97P  0.00P  462P  21.6P     
05/22/2017 08:45 CDT3.77P  94P  0.00P  462P  21.6P     
05/22/2017 09:00 CDT3.78P  97P  0.00P  462P  21.6P  0.394P  
05/22/2017 09:15 CDT3.77P  94P  0.00P  462P  21.6P     
05/22/2017 09:30 CDT3.78P  97P  0.00P  463P  21.7P     
05/22/2017 09:45 CDT3.78P  97P  0.00P  463P  21.7P     
05/22/2017 10:00 CDT3.78P  97P  0.00P  463P  21.7P  0.395P  
05/22/2017 10:15 CDT3.77P  94P  0.00P  463P  21.7P     
05/22/2017 10:30 CDT3.77P  94P  0.00P  463P  21.7P     
05/22/2017 10:45 CDT3.77P  94P  0.00P  464P  21.8P     
05/22/2017 11:00 CDT3.77P  94P  0.00P  464P  21.8P  0.397P  
05/22/2017 11:15 CDT3.77P  94P  0.00P  464P  21.8P     
05/22/2017 11:30 CDT3.77P  94P  0.00P  464P  21.8P     
05/22/2017 11:45 CDT3.77P  94P  0.00P  464P  21.9P     
05/22/2017 12:00 CDT3.77P  94P  0.00P  464P  21.9P  0.398P  
05/22/2017 12:15 CDT3.77P  94P  0.00P  465P  22.0P     
05/22/2017 12:30 CDT3.77P  94P  0.00P  465P  22.0P     
05/22/2017 12:45 CDT3.77P  94P  0.00P  465P  22.1P     
05/22/2017 13:00 CDT3.77P  94P  0.00P  465P  22.1P  0.398P  
05/22/2017 13:15 CDT3.77P  94P  0.00P  465P  22.2P     
05/22/2017 13:30 CDT3.77P  94P  0.00P  465P  22.3P     
05/22/2017 13:45 CDT3.77P  94P  0.00P  465P  22.3P     
05/22/2017 14:00 CDT3.77P  94P  0.00P  465P  22.4P  0.394P  
05/22/2017 14:15 CDT3.76P  92P  0.00P  465P  22.5P     
05/22/2017 14:30 CDT3.77P  94P  0.00P  465P  22.6P     
05/22/2017 14:45 CDT3.77P  94P  0.00P  464P  22.6P     
05/22/2017 15:00 CDT3.76P  92P  0.00P  465P  22.8P  0.392P  
05/22/2017 15:15 CDT3.77P  94P  0.00P  464P  22.9P     
05/22/2017 15:30 CDT3.76P  92P  0.00P  464P  22.9P     
05/22/2017 15:45 CDT3.76P  92P  0.00P  465P  23.0P     
05/22/2017 16:00 CDT3.76P  92P  0.00P  464P  23.1P  0.386P  
05/22/2017 16:15 CDT3.77P  94P  0.00P  464P  23.2P     
05/22/2017 16:30 CDT3.76P  92P  0.00P  464P  23.3P     
05/22/2017 16:45 CDT3.76P  92P  0.00P  464P  23.4P     
05/22/2017 17:00 CDT3.77P  94P  0.00P  464P  23.4P  0.380P  
05/22/2017 17:15 CDT3.77P  94P  0.00P  463P  23.5P     
05/22/2017 17:30 CDT3.76P  92P  0.00P  463P  23.5P     
05/22/2017 17:45 CDT3.76P  92P  0.00P  463P  23.6P     
05/22/2017 18:00 CDT3.76P  92P  0.00P  463P  23.6P  0.376P  
05/22/2017 18:15 CDT3.76P  92P  0.00P  463P  23.6P     
05/22/2017 18:30 CDT3.76P  92P  0.00P  463P  23.6P     
05/22/2017 18:45 CDT3.76P  92P  0.00P  463P  23.6P     
05/22/2017 19:00 CDT3.76P  92P  0.00P  463P  23.6P  0.377P  
05/22/2017 19:15 CDT3.76P  92P  0.00P  464P  23.7P     
05/22/2017 19:30 CDT3.76P  92P  0.00P  464P  23.7P     
05/22/2017 19:45 CDT3.76P  92P  0.00P  464P  23.7P     
05/22/2017 20:00 CDT3.76P  92P  0.00P  465P  23.7P  0.380P  
05/22/2017 20:15 CDT3.76P  92P  0.00P  465P  23.7P     
05/22/2017 20:30 CDT3.76P  92P  0.00P  465P  23.7P     
05/22/2017 20:45 CDT3.76P  92P  0.00P  465P  23.6P     
05/22/2017 21:00 CDT3.76P  92P  0.00P  465P  23.6P  0.378P  
05/22/2017 21:15 CDT3.76P  92P  0.00P  465P  23.6P     
05/22/2017 21:30 CDT3.76P  92P  0.00P  465P  23.6P     
05/22/2017 21:45 CDT3.76P  92P  0.00P  465P  23.6P     
05/22/2017 22:00 CDT3.75P  89P  0.00P  465P  23.6P  0.381P  
05/22/2017 22:15 CDT3.75P  89P  0.00P  466P  23.5P     
05/22/2017 22:30 CDT3.76P  92P  0.00P  466P  23.5P     
05/22/2017 22:45 CDT3.75P  89P  0.00P  466P  23.5P     
05/22/2017 23:00 CDT3.76P  92P  0.00P  466P  23.4P  0.381P  
05/22/2017 23:15 CDT3.76P  92P  0.00P  467P  23.4P     
05/22/2017 23:30 CDT3.75P  89P  0.00P  467P  23.4P     
05/22/2017 23:45 CDT3.76P  92P  0.00P  467P  23.3P     
05/23/2017 00:00 CDT3.75P  89P  0.00P  467P  23.3P  0.381P  
05/23/2017 00:15 CDT3.76P  92P  0.00P  467P  23.3P     
05/23/2017 00:30 CDT3.75P  89P  0.00P  467P  23.2P     
05/23/2017 00:45 CDT3.76P  92P  0.00P  467P  23.2P     
05/23/2017 01:00 CDT3.75P  89P  0.00P  467P  23.1P  0.376P  
05/23/2017 01:15 CDT3.75P  89P  0.00P  467P  23.1P     
05/23/2017 01:30 CDT3.76P  92P  0.00P  466P  23.1P     
05/23/2017 01:45 CDT3.75P  89P  0.00P  466P  23.0P     
05/23/2017 02:00 CDT3.76P  92P  0.00P  466P  23.0P  0.377P  
05/23/2017 02:15 CDT3.76P  92P  0.00P  466P  23.0P     
05/23/2017 02:30 CDT3.76P  92P  0.00P  466P  22.9P     
05/23/2017 02:45 CDT3.76P  92P  0.00P  466P  22.9P     
05/23/2017 03:00 CDT3.76P  92P  0.00P  466P  22.9P  0.376P  
05/23/2017 03:15 CDT3.76P  92P  0.00P  466P  22.8P     
05/23/2017 03:30 CDT3.75P  89P  0.00P  466P  22.8P     

Explanation
  P  Provisional data subject to revision.